sensor_id;sensor_type;location;lat;lon;timestamp;pressure;altitude;pressure_sealevel;temperature;humidity
75513;BME280;64090;49.770;18.760;2022-11-20T00:01:32;97287.73;;;-3.25;82.05
75513;BME280;64090;49.770;18.760;2022-11-20T00:04:00;97288.73;;;-3.23;82.44
75513;BME280;64090;49.770;18.760;2022-11-20T00:06:29;97288.33;;;-3.22;82.73
75513;BME280;64090;49.770;18.760;2022-11-20T00:08:59;97291.45;;;-3.20;82.43
75513;BME280;64090;49.770;18.760;2022-11-20T00:11:29;97286.09;;;-3.26;82.39
75513;BME280;64090;49.770;18.760;2022-11-20T00:14:00;97289.21;;;-3.33;82.30
75513;BME280;64090;49.770;18.760;2022-11-20T00:16:30;97285.77;;;-3.37;82.39
75513;BME280;64090;49.770;18.760;2022-11-20T00:18:58;97288.38;;;-3.37;82.48
75513;BME280;64090;49.770;18.760;2022-11-20T00:21:28;97294.08;;;-3.37;82.41
75513;BME280;64090;49.770;18.760;2022-11-20T00:23:56;97293.99;;;-3.38;82.93
75513;BME280;64090;49.770;18.760;2022-11-20T00:26:26;97293.82;;;-3.44;83.55
75513;BME280;64090;49.770;18.760;2022-11-20T00:28:57;97288.11;;;-3.59;83.44
75513;BME280;64090;49.770;18.760;2022-11-20T00:31:25;97288.77;;;-3.73;83.35
75513;BME280;64090;49.770;18.760;2022-11-20T00:33:53;97283.46;;;-3.86;83.13
75513;BME280;64090;49.770;18.760;2022-11-20T00:36:24;97280.86;;;-3.95;82.97
75513;BME280;64090;49.770;18.760;2022-11-20T00:38:53;97287.25;;;-4.03;82.54
75513;BME280;64090;49.770;18.760;2022-11-20T00:41:22;97286.79;;;-4.12;82.51
75513;BME280;64090;49.770;18.760;2022-11-20T00:43:54;97279.09;;;-4.22;82.36
75513;BME280;64090;49.770;18.760;2022-11-20T00:46:24;97280.42;;;-4.29;82.44
75513;BME280;64090;49.770;18.760;2022-11-20T00:48:56;97278.84;;;-4.36;82.69
75513;BME280;64090;49.770;18.760;2022-11-20T00:51:27;97279.27;;;-4.41;83.03
75513;BME280;64090;49.770;18.760;2022-11-20T00:53:57;97273.81;;;-4.44;82.86
75513;BME280;64090;49.770;18.760;2022-11-20T00:56:25;97275.41;;;-4.49;82.71
75513;BME280;64090;49.770;18.760;2022-11-20T00:58:59;97270.67;;;-4.55;82.65
75513;BME280;64090;49.770;18.760;2022-11-20T01:01:31;97271.14;;;-4.60;82.73
75513;BME280;64090;49.770;18.760;2022-11-20T01:04:03;97267.54;;;-4.68;82.56
75513;BME280;64090;49.770;18.760;2022-11-20T01:06:37;97266.20;;;-4.74;82.49
75513;BME280;64090;49.770;18.760;2022-11-20T01:09:12;97264.13;;;-4.81;82.59
75513;BME280;64090;49.770;18.760;2022-11-20T01:11:43;97265.33;;;-4.86;83.17
75513;BME280;64090;49.770;18.760;2022-11-20T01:14:15;97259.30;;;-4.88;83.37
75513;BME280;64090;49.770;18.760;2022-11-20T01:16:46;97259.14;;;-4.90;83.23
75513;BME280;64090;49.770;18.760;2022-11-20T01:19:23;97258.36;;;-4.94;83.04
75513;BME280;64090;49.770;18.760;2022-11-20T01:21:53;97257.05;;;-4.96;83.22
75513;BME280;64090;49.770;18.760;2022-11-20T01:24:25;97259.64;;;-5.01;82.96
75513;BME280;64090;49.770;18.760;2022-11-20T01:26:56;97256.49;;;-5.07;83.04
75513;BME280;64090;49.770;18.760;2022-11-20T01:29:24;97255.45;;;-5.11;82.80
75513;BME280;64090;49.770;18.760;2022-11-20T01:31:52;97255.02;;;-5.15;82.91
75513;BME280;64090;49.770;18.760;2022-11-20T01:34:21;97253.80;;;-5.19;83.11
75513;BME280;64090;49.770;18.760;2022-11-20T01:36:50;97251.30;;;-5.23;83.31
75513;BME280;64090;49.770;18.760;2022-11-20T01:39:23;97248.95;;;-5.26;83.52
75513;BME280;64090;49.770;18.760;2022-11-20T01:41:53;97247.87;;;-5.28;83.45
75513;BME280;64090;49.770;18.760;2022-11-20T01:47:40;97242.95;;;-5.33;83.38
75513;BME280;64090;49.770;18.760;2022-11-20T01:50:26;97239.40;;;-5.39;83.07
75513;BME280;64090;49.770;18.760;2022-11-20T01:53:02;97240.16;;;-5.41;83.12
75513;BME280;64090;49.770;18.760;2022-11-20T01:55:36;97236.56;;;-5.44;83.26
75513;BME280;64090;49.770;18.760;2022-11-20T01:58:05;97239.66;;;-5.44;83.73
75513;BME280;64090;49.770;18.760;2022-11-20T02:00:33;97235.58;;;-5.45;83.70
75513;BME280;64090;49.770;18.760;2022-11-20T02:03:05;97242.77;;;-5.44;83.90
75513;BME280;64090;49.770;18.760;2022-11-20T02:05:38;97245.02;;;-5.42;84.27
75513;BME280;64090;49.770;18.760;2022-11-20T02:08:09;97247.10;;;-5.42;83.98
75513;BME280;64090;49.770;18.760;2022-11-20T02:10:37;97251.10;;;-5.45;83.50
75513;BME280;64090;49.770;18.760;2022-11-20T02:13:05;97254.28;;;-5.50;83.29
75513;BME280;64090;49.770;18.760;2022-11-20T02:15:52;97259.79;;;-5.54;83.60
75513;BME280;64090;49.770;18.760;2022-11-20T02:18:21;97260.27;;;-5.58;83.48
75513;BME280;64090;49.770;18.760;2022-11-20T02:26:22;97267.10;;;-5.57;84.41
75513;BME280;64090;49.770;18.760;2022-11-20T02:28:50;97261.55;;;-5.55;84.39
75513;BME280;64090;49.770;18.760;2022-11-20T02:31:18;97257.75;;;-5.53;84.21
75513;BME280;64090;49.770;18.760;2022-11-20T02:33:46;97259.08;;;-5.52;84.12
75513;BME280;64090;49.770;18.760;2022-11-20T02:36:15;97260.41;;;-5.54;83.90
75513;BME280;64090;49.770;18.760;2022-11-20T02:38:43;97261.45;;;-5.58;83.94
75513;BME280;64090;49.770;18.760;2022-11-20T02:41:11;97266.71;;;-5.64;83.95
75513;BME280;64090;49.770;18.760;2022-11-20T02:43:39;97270.58;;;-5.67;83.77
75513;BME280;64090;49.770;18.760;2022-11-20T02:46:07;97266.12;;;-5.68;84.05
75513;BME280;64090;49.770;18.760;2022-11-20T02:48:35;97266.36;;;-5.64;84.29
75513;BME280;64090;49.770;18.760;2022-11-20T02:51:03;97260.88;;;-5.57;84.23
75513;BME280;64090;49.770;18.760;2022-11-20T02:53:31;97261.88;;;-5.52;85.13
75513;BME280;64090;49.770;18.760;2022-11-20T02:55:59;97262.45;;;-5.47;85.02
75513;BME280;64090;49.770;18.760;2022-11-20T02:58:27;97258.98;;;-5.39;84.83
75513;BME280;64090;49.770;18.760;2022-11-20T03:00:55;97259.71;;;-5.33;84.98
75513;BME280;64090;49.770;18.760;2022-11-20T03:03:23;97263.99;;;-5.28;84.69
75513;BME280;64090;49.770;18.760;2022-11-20T03:05:50;97262.27;;;-5.29;84.19
75513;BME280;64090;49.770;18.760;2022-11-20T03:08:18;97263.46;;;-5.28;84.29
75513;BME280;64090;49.770;18.760;2022-11-20T03:10:46;97259.11;;;-5.30;84.12
75513;BME280;64090;49.770;18.760;2022-11-20T03:13:14;97261.08;;;-5.33;84.01
75513;BME280;64090;49.770;18.760;2022-11-20T03:15:42;97261.58;;;-5.35;84.19
75513;BME280;64090;49.770;18.760;2022-11-20T03:18:10;97264.95;;;-5.38;84.47
75513;BME280;64090;49.770;18.760;2022-11-20T03:20:41;97266.67;;;-5.38;84.89
75513;BME280;64090;49.770;18.760;2022-11-20T03:23:12;97269.28;;;-5.39;85.05
75513;BME280;64090;49.770;18.760;2022-11-20T03:25:40;97269.48;;;-5.37;84.99
75513;BME280;64090;49.770;18.760;2022-11-20T03:28:07;97273.91;;;-5.34;84.86
75513;BME280;64090;49.770;18.760;2022-11-20T03:30:35;97276.02;;;-5.30;84.75
75513;BME280;64090;49.770;18.760;2022-11-20T03:33:03;97280.50;;;-5.25;84.46
75513;BME280;64090;49.770;18.760;2022-11-20T03:35:31;97281.16;;;-5.18;84.61
75513;BME280;64090;49.770;18.760;2022-11-20T03:37:59;97275.00;;;-5.12;84.80
75513;BME280;64090;49.770;18.760;2022-11-20T03:40:26;97271.31;;;-5.02;85.26
75513;BME280;64090;49.770;18.760;2022-11-20T03:42:54;97269.98;;;-4.92;85.33
75513;BME280;64090;49.770;18.760;2022-11-20T03:45:22;97263.00;;;-4.80;85.45
75513;BME280;64090;49.770;18.760;2022-11-20T03:47:50;97260.41;;;-4.69;85.43
75513;BME280;64090;49.770;18.760;2022-11-20T03:50:22;97258.15;;;-4.60;85.45
75513;BME280;64090;49.770;18.760;2022-11-20T03:52:50;97253.87;;;-4.54;85.63
75513;BME280;64090;49.770;18.760;2022-11-20T03:55:18;97253.13;;;-4.47;85.41
75513;BME280;64090;49.770;18.760;2022-11-20T03:57:46;97250.72;;;-4.39;85.53
75513;BME280;64090;49.770;18.760;2022-11-20T04:00:14;97253.45;;;-4.29;85.36
75513;BME280;64090;49.770;18.760;2022-11-20T04:02:42;97254.67;;;-4.19;85.67
75513;BME280;64090;49.770;18.760;2022-11-20T04:05:10;97253.94;;;-4.10;85.98
75513;BME280;64090;49.770;18.760;2022-11-20T04:07:38;97249.39;;;-4.03;85.92
75513;BME280;64090;49.770;18.760;2022-11-20T04:10:06;97252.97;;;-3.96;85.85
75513;BME280;64090;49.770;18.760;2022-11-20T04:12:34;97246.99;;;-3.91;85.83
75513;BME280;64090;49.770;18.760;2022-11-20T04:15:02;97250.30;;;-3.87;85.59
75513;BME280;64090;49.770;18.760;2022-11-20T04:17:30;97249.25;;;-3.85;85.57
75513;BME280;64090;49.770;18.760;2022-11-20T04:19:57;97245.98;;;-3.83;85.56
75513;BME280;64090;49.770;18.760;2022-11-20T04:22:25;97248.21;;;-3.81;85.37
75513;BME280;64090;49.770;18.760;2022-11-20T04:24:53;97251.28;;;-3.76;85.78
75513;BME280;64090;49.770;18.760;2022-11-20T04:27:21;97256.50;;;-3.70;85.82
75513;BME280;64090;49.770;18.760;2022-11-20T04:29:49;97257.86;;;-3.65;85.86
75513;BME280;64090;49.770;18.760;2022-11-20T04:32:16;97253.48;;;-3.63;85.78
75513;BME280;64090;49.770;18.760;2022-11-20T04:34:44;97246.52;;;-3.62;85.62
75513;BME280;64090;49.770;18.760;2022-11-20T04:37:12;97245.48;;;-3.64;85.59
75513;BME280;64090;49.770;18.760;2022-11-20T04:39:40;97245.15;;;-3.65;85.61
75513;BME280;64090;49.770;18.760;2022-11-20T04:42:09;97241.47;;;-3.64;85.51
75513;BME280;64090;49.770;18.760;2022-11-20T04:44:56;97240.86;;;-3.61;85.60
75513;BME280;64090;49.770;18.760;2022-11-20T04:47:25;97242.09;;;-3.57;85.57
75513;BME280;64090;49.770;18.760;2022-11-20T04:49:56;97240.08;;;-3.52;85.76
75513;BME280;64090;49.770;18.760;2022-11-20T04:54:26;97240.33;;;-3.44;86.10
75513;BME280;64090;49.770;18.760;2022-11-20T04:56:54;97234.91;;;-3.42;86.04
75513;BME280;64090;49.770;18.760;2022-11-20T04:59:22;97229.45;;;-3.37;85.80
75513;BME280;64090;49.770;18.760;2022-11-20T05:01:50;97224.29;;;-3.35;85.57
75513;BME280;64090;49.770;18.760;2022-11-20T05:04:18;97223.33;;;-3.36;85.46
75513;BME280;64090;49.770;18.760;2022-11-20T05:06:46;97219.88;;;-3.38;85.33
75513;BME280;64090;49.770;18.760;2022-11-20T05:09:14;97219.38;;;-3.40;85.24
75513;BME280;64090;49.770;18.760;2022-11-20T05:11:42;97214.27;;;-3.45;85.06
75513;BME280;64090;49.770;18.760;2022-11-20T05:14:11;97214.66;;;-3.52;85.10
75513;BME280;64090;49.770;18.760;2022-11-20T05:16:39;97212.48;;;-3.55;85.27
75513;BME280;64090;49.770;18.760;2022-11-20T05:19:07;97213.17;;;-3.59;85.52
75513;BME280;64090;49.770;18.760;2022-11-20T05:21:35;97207.66;;;-3.61;85.80
75513;BME280;64090;49.770;18.760;2022-11-20T05:24:03;97202.34;;;-3.62;85.52
75513;BME280;64090;49.770;18.760;2022-11-20T05:26:32;97198.30;;;-3.63;85.33
75513;BME280;64090;49.770;18.760;2022-11-20T05:29:00;97200.36;;;-3.67;85.19
75513;BME280;64090;49.770;18.760;2022-11-20T05:31:28;97198.57;;;-3.71;85.03
75513;BME280;64090;49.770;18.760;2022-11-20T05:33:56;97199.84;;;-3.74;84.96
75513;BME280;64090;49.770;18.760;2022-11-20T05:36:25;97202.20;;;-3.79;85.00
75513;BME280;64090;49.770;18.760;2022-11-20T05:49:01;97207.03;;;-3.97;85.36
75513;BME280;64090;49.770;18.760;2022-11-20T05:51:28;97202.73;;;-4.02;85.31
75513;BME280;64090;49.770;18.760;2022-11-20T05:54:00;97200.80;;;-4.04;85.22
75513;BME280;64090;49.770;18.760;2022-11-20T05:56:27;97204.35;;;-4.07;85.29
75513;BME280;64090;49.770;18.760;2022-11-20T05:58:55;97196.44;;;-4.11;84.93
75513;BME280;64090;49.770;18.760;2022-11-20T06:01:25;97195.83;;;-4.17;84.81
75513;BME280;64090;49.770;18.760;2022-11-20T06:03:54;97191.02;;;-4.19;84.72
75513;BME280;64090;49.770;18.760;2022-11-20T06:06:22;97186.05;;;-4.22;84.97
75513;BME280;64090;49.770;18.760;2022-11-20T06:08:50;97183.88;;;-4.23;85.35
75513;BME280;64090;49.770;18.760;2022-11-20T06:11:18;97193.81;;;-4.24;85.36
75513;BME280;64090;49.770;18.760;2022-11-20T06:13:47;97183.61;;;-4.24;85.51
75513;BME280;64090;49.770;18.760;2022-11-20T06:16:17;97173.45;;;-4.24;85.40
75513;BME280;64090;49.770;18.760;2022-11-20T06:21:18;97162.05;;;-4.24;84.93
75513;BME280;64090;49.770;18.760;2022-11-20T06:23:47;97162.33;;;-4.30;84.60
75513;BME280;64090;49.770;18.760;2022-11-20T06:26:18;97166.91;;;-4.35;84.48
75513;BME280;64090;49.770;18.760;2022-11-20T06:28:46;97162.80;;;-4.42;84.97
75513;BME280;64090;49.770;18.760;2022-11-20T06:31:18;97165.43;;;-4.49;84.74
75513;BME280;64090;49.770;18.760;2022-11-20T06:33:47;97161.33;;;-4.53;84.52
75513;BME280;64090;49.770;18.760;2022-11-20T06:36:16;97159.21;;;-4.58;84.86
75513;BME280;64090;49.770;18.760;2022-11-20T06:38:45;97159.04;;;-4.57;85.00
75513;BME280;64090;49.770;18.760;2022-11-20T06:41:16;97152.73;;;-4.54;85.20
75513;BME280;64090;49.770;18.760;2022-11-20T06:43:44;97150.77;;;-4.49;85.09
75513;BME280;64090;49.770;18.760;2022-11-20T06:46:13;97149.92;;;-4.43;84.98
75513;BME280;64090;49.770;18.760;2022-11-20T06:48:41;97151.54;;;-4.38;84.68
75513;BME280;64090;49.770;18.760;2022-11-20T06:51:09;97153.70;;;-4.32;84.64
75513;BME280;64090;49.770;18.760;2022-11-20T06:53:38;97157.80;;;-4.27;84.53
75513;BME280;64090;49.770;18.760;2022-11-20T06:56:06;97163.26;;;-4.20;84.60
75513;BME280;64090;49.770;18.760;2022-11-20T06:58:35;97164.24;;;-4.09;84.84
75513;BME280;64090;49.770;18.760;2022-11-20T07:01:07;97166.89;;;-3.95;85.11
75513;BME280;64090;49.770;18.760;2022-11-20T07:03:36;97169.99;;;-3.79;84.98
75513;BME280;64090;49.770;18.760;2022-11-20T07:06:05;97168.60;;;-3.62;85.25
75513;BME280;64090;49.770;18.760;2022-11-20T07:08:33;97170.86;;;-3.46;85.35
75513;BME280;64090;49.770;18.760;2022-11-20T07:11:03;97168.91;;;-3.32;85.21
75513;BME280;64090;49.770;18.760;2022-11-20T07:13:32;97174.65;;;-3.14;85.36
75513;BME280;64090;49.770;18.760;2022-11-20T07:16:03;97176.70;;;-3.00;85.31
75513;BME280;64090;49.770;18.760;2022-11-20T07:18:31;97179.84;;;-2.88;85.21
75513;BME280;64090;49.770;18.760;2022-11-20T07:21:03;97178.84;;;-2.78;85.30
75513;BME280;64090;49.770;18.760;2022-11-20T07:23:32;97183.42;;;-2.71;85.28
75513;BME280;64090;49.770;18.760;2022-11-20T07:26:08;97185.39;;;-2.61;85.48
75513;BME280;64090;49.770;18.760;2022-11-20T07:28:37;97189.08;;;-2.49;85.74
75513;BME280;64090;49.770;18.760;2022-11-20T07:31:05;97188.09;;;-2.38;86.03
75513;BME280;64090;49.770;18.760;2022-11-20T07:33:35;97186.79;;;-2.28;86.09
75513;BME280;64090;49.770;18.760;2022-11-20T07:36:03;97190.23;;;-2.19;86.06
75513;BME280;64090;49.770;18.760;2022-11-20T07:38:31;97194.30;;;-2.11;86.02
75513;BME280;64090;49.770;18.760;2022-11-20T07:40:59;97188.56;;;-2.03;86.13
75513;BME280;64090;49.770;18.760;2022-11-20T07:43:29;97190.77;;;-1.99;86.17
75513;BME280;64090;49.770;18.760;2022-11-20T07:45:58;97190.33;;;-1.94;85.91
75513;BME280;64090;49.770;18.760;2022-11-20T07:48:26;97187.27;;;-1.87;86.03
75513;BME280;64090;49.770;18.760;2022-11-20T07:50:57;97190.32;;;-1.79;85.83
75513;BME280;64090;49.770;18.760;2022-11-20T07:53:26;97185.73;;;-1.72;85.70
75513;BME280;64090;49.770;18.760;2022-11-20T07:57:24;97188.33;;;-1.63;85.98
75513;BME280;64090;49.770;18.760;2022-11-20T07:59:55;97190.80;;;-1.59;86.11
75513;BME280;64090;49.770;18.760;2022-11-20T08:02:23;97191.44;;;-1.55;86.06
75513;BME280;64090;49.770;18.760;2022-11-20T08:04:50;97189.84;;;-1.51;85.92
75513;BME280;64090;49.770;18.760;2022-11-20T08:07:19;97188.87;;;-1.48;85.98
75513;BME280;64090;49.770;18.760;2022-11-20T08:09:47;97189.33;;;-1.45;85.75
75513;BME280;64090;49.770;18.760;2022-11-20T08:13:38;97185.63;;;-1.39;85.85
75513;BME280;64090;49.770;18.760;2022-11-20T08:16:24;97190.70;;;-1.36;85.52
75513;BME280;64090;49.770;18.760;2022-11-20T08:18:55;97181.82;;;-1.26;85.65
75513;BME280;64090;49.770;18.760;2022-11-20T08:21:27;97181.29;;;-1.13;85.72
75513;BME280;64090;49.770;18.760;2022-11-20T08:24:00;97183.36;;;-0.99;85.55
75513;BME280;64090;49.770;18.760;2022-11-20T08:26:29;97186.54;;;-0.88;84.82
75513;BME280;64090;49.770;18.760;2022-11-20T08:28:58;97191.61;;;-0.81;85.22
75513;BME280;64090;49.770;18.760;2022-11-20T08:31:27;97193.42;;;-0.71;85.40
75513;BME280;64090;49.770;18.760;2022-11-20T08:33:55;97197.00;;;-0.60;84.97
75513;BME280;64090;49.770;18.760;2022-11-20T08:36:25;97194.85;;;-0.50;85.11
75513;BME280;64090;49.770;18.760;2022-11-20T08:39:00;97187.15;;;-0.39;84.69
75513;BME280;64090;49.770;18.760;2022-11-20T08:41:29;97190.55;;;-0.31;84.42
75513;BME280;64090;49.770;18.760;2022-11-20T08:44:05;97194.06;;;-0.26;83.93
75513;BME280;64090;49.770;18.760;2022-11-20T08:46:37;97194.42;;;-0.21;83.64
75513;BME280;64090;49.770;18.760;2022-11-20T08:49:10;97195.10;;;-0.17;83.56
75513;BME280;64090;49.770;18.760;2022-11-20T08:51:39;97193.33;;;-0.15;83.58
75513;BME280;64090;49.770;18.760;2022-11-20T08:54:10;97194.05;;;-0.13;83.36
75513;BME280;64090;49.770;18.760;2022-11-20T08:56:42;97197.39;;;-0.12;83.68
75513;BME280;64090;49.770;18.760;2022-11-20T08:59:13;97194.15;;;-0.08;83.65
75513;BME280;64090;49.770;18.760;2022-11-20T09:02:01;97192.70;;;0.02;83.40
75513;BME280;64090;49.770;18.760;2022-11-20T09:04:28;97197.67;;;0.05;84.01
75513;BME280;64090;49.770;18.760;2022-11-20T09:06:56;97193.23;;;0.08;82.53
75513;BME280;64090;49.770;18.760;2022-11-20T09:09:24;97197.14;;;0.08;83.56
75513;BME280;64090;49.770;18.760;2022-11-20T09:11:52;97191.39;;;0.15;83.08
75513;BME280;64090;49.770;18.760;2022-11-20T09:14:20;97188.58;;;0.22;83.09
75513;BME280;64090;49.770;18.760;2022-11-20T09:16:48;97187.88;;;0.31;82.85
75513;BME280;64090;49.770;18.760;2022-11-20T09:19:16;97186.69;;;0.38;82.01
75513;BME280;64090;49.770;18.760;2022-11-20T09:22:02;97187.20;;;0.48;82.15
75513;BME280;64090;49.770;18.760;2022-11-20T09:24:30;97186.60;;;0.59;82.87
75513;BME280;64090;49.770;18.760;2022-11-20T09:27:01;97184.27;;;0.65;81.51
75513;BME280;64090;49.770;18.760;2022-11-20T09:29:29;97181.02;;;0.70;81.34
75513;BME280;64090;49.770;18.760;2022-11-20T09:31:57;97181.71;;;0.70;80.74
75513;BME280;64090;49.770;18.760;2022-11-20T09:34:25;97180.85;;;0.66;79.62
75513;BME280;64090;49.770;18.760;2022-11-20T09:36:53;97178.27;;;0.60;78.72
75513;BME280;64090;49.770;18.760;2022-11-20T09:39:20;97171.18;;;0.62;79.80
75513;BME280;64090;49.770;18.760;2022-11-20T09:42:09;97170.52;;;0.63;80.01
75513;BME280;64090;49.770;18.760;2022-11-20T09:45:00;97169.41;;;0.69;79.31
75513;BME280;64090;49.770;18.760;2022-11-20T09:50:43;97164.73;;;0.93;79.70
75513;BME280;64090;49.770;18.760;2022-11-20T09:53:30;97163.38;;;1.07;79.32
75513;BME280;64090;49.770;18.760;2022-11-20T09:56:03;97165.08;;;1.16;78.95
75513;BME280;64090;49.770;18.760;2022-11-20T09:58:40;97166.19;;;1.24;79.06
75513;BME280;64090;49.770;18.760;2022-11-20T10:01:14;97159.51;;;1.34;78.47
75513;BME280;64090;49.770;18.760;2022-11-20T10:03:59;97151.73;;;1.48;78.38
75513;BME280;64090;49.770;18.760;2022-11-20T10:06:52;97150.52;;;1.55;76.34
75513;BME280;64090;49.770;18.760;2022-11-20T10:09:40;97141.41;;;1.63;75.70
75513;BME280;64090;49.770;18.760;2022-11-20T10:14:57;97133.19;;;1.91;78.52
75513;BME280;64090;49.770;18.760;2022-11-20T10:17:53;97137.31;;;2.11;77.70
75513;BME280;64090;49.770;18.760;2022-11-20T10:26:01;97120.17;;;2.81;76.53
75513;BME280;64090;49.770;18.760;2022-11-20T10:29:07;97118.23;;;2.88;75.61
75513;BME280;64090;49.770;18.760;2022-11-20T10:31:40;97120.14;;;3.00;75.56
75513;BME280;64090;49.770;18.760;2022-11-20T10:34:22;97123.52;;;3.08;73.03
75513;BME280;64090;49.770;18.760;2022-11-20T10:36:55;97129.89;;;3.01;73.88
75513;BME280;64090;49.770;18.760;2022-11-20T10:39:43;97134.05;;;3.01;74.84
75513;BME280;64090;49.770;18.760;2022-11-20T10:42:17;97125.89;;;3.03;72.36
75513;BME280;64090;49.770;18.760;2022-11-20T10:44:52;97126.15;;;3.06;74.59
75513;BME280;64090;49.770;18.760;2022-11-20T10:47:33;97122.08;;;3.11;73.41
75513;BME280;64090;49.770;18.760;2022-11-20T10:50:04;97124.20;;;3.14;74.37
75513;BME280;64090;49.770;18.760;2022-11-20T10:53:32;97125.93;;;3.19;74.63
75513;BME280;64090;49.770;18.760;2022-11-20T10:55:42;97127.52;;;3.19;75.39
75513;BME280;64090;49.770;18.760;2022-11-20T10:58:43;97122.65;;;3.20;75.29
75513;BME280;64090;49.770;18.760;2022-11-20T11:01:20;97119.82;;;3.31;73.78
75513;BME280;64090;49.770;18.760;2022-11-20T11:03:52;97110.44;;;3.44;73.11
75513;BME280;64090;49.770;18.760;2022-11-20T11:06:40;97107.07;;;3.51;73.17
75513;BME280;64090;49.770;18.760;2022-11-20T11:09:21;97106.98;;;3.55;73.71
75513;BME280;64090;49.770;18.760;2022-11-20T11:11:52;97108.27;;;3.57;73.17
75513;BME280;64090;49.770;18.760;2022-11-20T11:14:20;97109.03;;;3.56;73.64
75513;BME280;64090;49.770;18.760;2022-11-20T11:16:56;97110.84;;;3.57;73.01
75513;BME280;64090;49.770;18.760;2022-11-20T11:19:24;97114.36;;;3.59;72.62
75513;BME280;64090;49.770;18.760;2022-11-20T11:21:56;97111.06;;;3.53;72.13
75513;BME280;64090;49.770;18.760;2022-11-20T11:24:29;97109.91;;;3.64;74.52
75513;BME280;64090;49.770;18.760;2022-11-20T11:27:14;97103.16;;;3.77;74.27
75513;BME280;64090;49.770;18.760;2022-11-20T11:29:46;97101.06;;;3.92;74.69
75513;BME280;64090;49.770;18.760;2022-11-20T11:32:18;97100.36;;;4.05;73.07
75513;BME280;64090;49.770;18.760;2022-11-20T11:35:04;97107.73;;;4.05;72.12
75513;BME280;64090;49.770;18.760;2022-11-20T11:37:34;97107.48;;;3.91;72.10
75513;BME280;64090;49.770;18.760;2022-11-20T11:40:04;97110.08;;;3.79;72.68
75513;BME280;64090;49.770;18.760;2022-11-20T11:42:57;97102.73;;;3.70;72.46
75513;BME280;64090;49.770;18.760;2022-11-20T11:45:27;97100.59;;;3.64;72.71
75513;BME280;64090;49.770;18.760;2022-11-20T11:48:00;97094.57;;;3.65;73.72
75513;BME280;64090;49.770;18.760;2022-11-20T11:50:30;97095.45;;;3.57;74.47
75513;BME280;64090;49.770;18.760;2022-11-20T11:53:15;97097.60;;;3.57;75.00
75513;BME280;64090;49.770;18.760;2022-11-20T11:55:56;97090.38;;;3.51;74.50
75513;BME280;64090;49.770;18.760;2022-11-20T11:58:49;97086.89;;;3.31;74.07
75513;BME280;64090;49.770;18.760;2022-11-20T12:01:27;97077.25;;;3.14;74.25
75513;BME280;64090;49.770;18.760;2022-11-20T12:09:52;97053.74;;;2.96;74.09
75513;BME280;64090;49.770;18.760;2022-11-20T12:12:05;97049.32;;;2.90;74.12
75513;BME280;64090;49.770;18.760;2022-11-20T12:14:27;97044.73;;;2.84;74.61
75513;BME280;64090;49.770;18.760;2022-11-20T12:16:35;97045.02;;;2.82;75.01
75513;BME280;64090;49.770;18.760;2022-11-20T12:18:40;97048.89;;;2.85;75.24
75513;BME280;64090;49.770;18.760;2022-11-20T12:21:13;97048.44;;;2.93;75.50
75513;BME280;64090;49.770;18.760;2022-11-20T12:23:20;97044.02;;;3.12;74.37
75513;BME280;64090;49.770;18.760;2022-11-20T12:25:31;97041.92;;;3.31;74.52
75513;BME280;64090;49.770;18.760;2022-11-20T12:37:23;97036.23;;;3.50;72.22
75513;BME280;64090;49.770;18.760;2022-11-20T12:39:58;97029.27;;;3.49;73.23
75513;BME280;64090;49.770;18.760;2022-11-20T12:42:13;97020.17;;;3.57;73.54
75513;BME280;64090;49.770;18.760;2022-11-20T12:57:24;97021.86;;;4.07;72.80
75513;BME280;64090;49.770;18.760;2022-11-20T12:59:55;97025.05;;;4.18;72.73
75513;BME280;64090;49.770;18.760;2022-11-20T13:07:11;97008.79;;;4.25;71.49
75513;BME280;64090;49.770;18.760;2022-11-20T13:09:16;97008.48;;;4.29;71.64
75513;BME280;64090;49.770;18.760;2022-11-20T13:16:54;96996.23;;;4.14;71.31
75513;BME280;64090;49.770;18.760;2022-11-20T13:19:10;96987.42;;;3.91;71.48
75513;BME280;64090;49.770;18.760;2022-11-20T13:23:34;96984.23;;;3.67;72.29
75513;BME280;64090;49.770;18.760;2022-11-20T13:25:37;96989.23;;;3.59;72.39
75513;BME280;64090;49.770;18.760;2022-11-20T13:27:47;96983.69;;;3.56;72.74
75513;BME280;64090;49.770;18.760;2022-11-20T13:30:13;96984.90;;;3.53;73.30
75513;BME280;64090;49.770;18.760;2022-11-20T13:32:20;96985.59;;;3.50;73.64
75513;BME280;64090;49.770;18.760;2022-11-20T13:34:26;96979.66;;;3.51;73.63
75513;BME280;64090;49.770;18.760;2022-11-20T13:36:29;96973.07;;;3.54;73.65
75513;BME280;64090;49.770;18.760;2022-11-20T13:38:43;96967.13;;;3.54;73.42
75513;BME280;64090;49.770;18.760;2022-11-20T13:41:00;96963.40;;;3.50;73.40
75513;BME280;64090;49.770;18.760;2022-11-20T13:43:39;96954.04;;;3.48;73.47
75513;BME280;64090;49.770;18.760;2022-11-20T13:45:42;96955.02;;;3.46;73.62
75513;BME280;64090;49.770;18.760;2022-11-20T13:47:51;96950.79;;;3.42;73.64
75513;BME280;64090;49.770;18.760;2022-11-20T13:49:55;96953.05;;;3.39;73.70
75513;BME280;64090;49.770;18.760;2022-11-20T13:52:08;96954.47;;;3.34;73.78
75513;BME280;64090;49.770;18.760;2022-11-20T13:54:44;96957.36;;;3.27;73.82
75513;BME280;64090;49.770;18.760;2022-11-20T13:57:13;96967.92;;;3.18;74.03
75513;BME280;64090;49.770;18.760;2022-11-20T14:01:56;96987.16;;;2.85;74.50
75513;BME280;64090;49.770;18.760;2022-11-20T14:03:57;96985.55;;;2.74;75.13
75513;BME280;64090;49.770;18.760;2022-11-20T14:06:29;96981.08;;;2.66;75.39
75513;BME280;64090;49.770;18.760;2022-11-20T14:08:38;96975.25;;;2.60;75.83
75513;BME280;64090;49.770;18.760;2022-11-20T14:10:41;96972.41;;;2.60;75.81
75513;BME280;64090;49.770;18.760;2022-11-20T14:12:42;96971.00;;;2.62;75.83
75513;BME280;64090;49.770;18.760;2022-11-20T14:14:52;96967.00;;;2.64;75.81
75513;BME280;64090;49.770;18.760;2022-11-20T14:17:21;96970.38;;;2.63;75.63
75513;BME280;64090;49.770;18.760;2022-11-20T14:19:26;96972.02;;;2.63;75.83
75513;BME280;64090;49.770;18.760;2022-11-20T14:21:29;96972.89;;;2.59;75.85
75513;BME280;64090;49.770;18.760;2022-11-20T14:23:31;96974.78;;;2.56;75.84